EFSI/SJY METAR and TAF weather

Enter ICAO airport designator
Station Type Date Time Source
EFSI METAR 2022/12/10 02:50 UTC NOAA

EFSI 100250Z AUTO 08005KT 040V120 9999 OVC004 M06/M07 Q1010


Station Type Date Time Source
EFSI Decoded METAR 2022/12/10 02:50 UTC NOAA

Seinajoki-Ilmajok, Finland (EFSI) 62-41-37N 022-49-55E
Dec 09, 2022 - 09:50 PM EST / 2022.12.10 0250 UTC
Wind: from the E (080 degrees) at 6 MPH (5 KT) (direction variable):0
Visibility: greater than 7 mile(s):0
Sky conditions: overcast
Temperature: 21 F (-6 C)
Windchill: 14 F (-10 C):1
Dew Point: 19 F (-7 C)
Relative Humidity: 92%
Pressure (altimeter): 29.83 in. Hg (1010 hPa)
ob: EFSI 100250Z AUTO 08005KT 040V120 9999 OVC004 M06/M07 Q1010
cycle: 3

Station Type Date Time Source
EFSI TAF 2012/03/06 09:42 UTC NOAA

TAF EFSI 060830Z 0609/0621 12003KT CAVOK

Example: see airport list